createdAt,value
2019-01-18T00:00:37.881Z,6.77
2019-01-18T00:03:06.733Z,5.93
2019-01-18T00:05:35.717Z,6.83
2019-01-18T00:08:04.625Z,6.77
2019-01-18T00:10:33.460Z,6.30
2019-01-18T00:13:02.232Z,10.00
2019-01-18T00:15:31.301Z,5.90
2019-01-18T00:18:00.162Z,6.50
2019-01-18T00:20:28.957Z,6.57
2019-01-18T00:22:57.936Z,7.23
2019-01-18T00:25:26.753Z,6.33
2019-01-18T00:27:55.931Z,4.97
2019-01-18T00:30:24.788Z,8.63
2019-01-18T00:32:53.753Z,8.13
2019-01-18T00:35:22.979Z,7.87
2019-01-18T00:37:51.711Z,8.40
2019-01-18T00:40:22.950Z,4.83
2019-01-18T00:42:51.964Z,7.03
2019-01-18T00:45:21.128Z,5.67
2019-01-18T00:47:49.881Z,7.87
2019-01-18T00:50:19.092Z,9.93
2019-01-18T00:52:47.964Z,6.63
2019-01-18T00:55:17.307Z,5.70
2019-01-18T00:57:46.424Z,5.93
2019-01-18T01:00:18.141Z,4.73
2019-01-18T01:02:47.004Z,7.60
2019-01-18T01:05:17.420Z,6.80
2019-01-18T01:07:46.604Z,12.03
2019-01-18T01:10:15.498Z,6.03
2019-01-18T01:12:45.429Z,12.80
2019-01-18T01:15:17.188Z,5.63
2019-01-18T01:17:46.254Z,7.73
2019-01-18T01:20:16.845Z,6.70
2019-01-18T01:22:45.972Z,4.80
2019-01-18T01:25:15.440Z,6.37
2019-01-18T01:27:44.560Z,6.17
2019-01-18T01:30:20.522Z,4.87
2019-01-18T01:32:49.633Z,15.73
2019-01-18T01:35:18.360Z,10.27
2019-01-18T01:37:47.350Z,5.23
2019-01-18T01:40:18.667Z,11.40
2019-01-18T01:42:47.383Z,6.33
2019-01-18T01:45:16.395Z,4.70
2019-01-18T01:47:45.276Z,11.13
2019-01-18T01:50:19.427Z,5.87
2019-01-18T01:52:48.562Z,6.23
2019-01-18T01:55:17.441Z,4.53
2019-01-18T01:57:46.229Z,5.70
2019-01-18T02:00:17.873Z,5.00
2019-01-18T02:02:46.940Z,5.40
2019-01-18T02:05:16.180Z,7.10
2019-01-18T02:07:45.556Z,7.50
2019-01-18T02:10:15.585Z,6.90
2019-01-18T02:12:44.645Z,7.60
2019-01-18T02:15:17.744Z,4.97
2019-01-18T02:17:46.885Z,3.57
2019-01-18T02:20:18.226Z,5.07
2019-01-18T02:22:47.069Z,3.50
2019-01-18T02:25:16.188Z,3.90
2019-01-18T02:27:45.662Z,3.67
2019-01-18T02:30:23.585Z,2.40
2019-01-18T02:32:52.423Z,3.40
2019-01-18T02:35:21.481Z,2.70
2019-01-18T02:37:51.501Z,2.77
2019-01-18T02:40:39.461Z,3.00
2019-01-18T02:43:08.453Z,4.37
2019-01-18T02:45:37.164Z,2.77
2019-01-18T02:48:05.976Z,3.47
2019-01-18T02:50:34.790Z,2.77
2019-01-18T02:53:03.628Z,2.00
2019-01-18T02:55:32.673Z,4.13
2019-01-18T02:58:01.633Z,2.20
2019-01-18T03:00:30.609Z,2.20
2019-01-18T03:02:59.579Z,2.43
2019-01-18T03:05:28.655Z,2.47
2019-01-18T03:07:57.625Z,7.30
2019-01-18T03:10:29.136Z,2.40
2019-01-18T03:12:59.143Z,1.83
2019-01-18T03:15:28.644Z,2.43
2019-01-18T03:17:57.337Z,2.27
2019-01-18T03:20:26.170Z,6.73
2019-01-18T03:22:55.199Z,2.00
2019-01-18T03:25:32.781Z,2.50
2019-01-18T03:28:01.767Z,4.10
2019-01-18T03:30:31.045Z,3.27
2019-01-18T03:33:00.019Z,2.47
2019-01-18T03:35:28.988Z,3.03
2019-01-18T03:37:57.957Z,3.37
2019-01-18T03:40:27.022Z,2.37
2019-01-18T03:42:56.228Z,3.20
2019-01-18T03:45:24.997Z,4.07
2019-01-18T03:47:54.130Z,3.63
2019-01-18T03:50:25.197Z,3.07
2019-01-18T03:52:53.991Z,3.10
2019-01-18T03:55:22.908Z,3.13
2019-01-18T03:57:53.437Z,4.33
2019-01-18T04:00:27.518Z,4.40
2019-01-18T04:02:56.587Z,3.67
2019-01-18T04:05:25.960Z,3.47
2019-01-18T04:07:54.834Z,6.47
2019-01-18T04:10:23.966Z,5.80
2019-01-18T04:12:52.812Z,4.60
2019-01-18T04:15:22.304Z,6.57
2019-01-18T04:17:51.172Z,8.77
2019-01-18T04:20:20.284Z,8.50
2019-01-18T04:22:49.106Z,10.13
2019-01-18T04:25:22.746Z,14.23
2019-01-18T04:27:51.710Z,10.43
2019-01-18T04:30:21.671Z,11.63
2019-01-18T04:32:50.610Z,10.10
2019-01-18T04:35:19.596Z,12.97
2019-01-18T04:37:50.667Z,11.17
2019-01-18T04:40:24.614Z,17.97
2019-01-18T04:42:53.548Z,10.40
2019-01-18T04:45:22.816Z,15.80
2019-01-18T04:47:51.712Z,9.93
2019-01-18T04:50:22.489Z,11.50
2019-01-18T04:52:51.388Z,11.03
2019-01-18T04:55:20.247Z,16.10
2019-01-18T04:57:49.058Z,11.50
2019-01-18T05:00:23.179Z,17.33
2019-01-18T05:02:52.551Z,11.67
2019-01-18T05:05:21.410Z,13.47
2019-01-18T05:07:50.264Z,15.20
2019-01-18T05:10:20.129Z,16.63
2019-01-18T05:12:49.094Z,15.47
2019-01-18T05:15:23.168Z,13.53
2019-01-18T05:17:53.618Z,23.40
2019-01-18T05:20:22.422Z,19.07
2019-01-18T05:22:51.491Z,20.97
2019-01-18T05:25:20.535Z,17.67
2019-01-18T05:27:49.286Z,14.97
2019-01-18T05:30:20.458Z,12.90
2019-01-18T05:32:49.167Z,18.70
2019-01-18T05:35:18.451Z,17.07
2019-01-18T05:37:47.487Z,14.90
2019-01-18T05:40:17.299Z,15.20
2019-01-18T05:42:46.076Z,17.83
2019-01-18T05:45:16.410Z,15.50
2019-01-18T05:47:45.995Z,15.00
2019-01-18T05:50:17.351Z,11.20
2019-01-18T05:52:46.546Z,13.20
2019-01-18T05:55:15.366Z,14.00
2019-01-18T05:57:44.672Z,13.50
2019-01-18T06:00:33.949Z,11.43
2019-01-18T06:03:03.240Z,18.73
2019-01-18T06:05:33.536Z,13.27
2019-01-18T06:08:02.357Z,19.30
2019-01-18T06:10:31.077Z,13.80
2019-01-18T06:13:00.070Z,18.03
2019-01-18T06:15:28.962Z,16.20
2019-01-18T06:17:58.135Z,20.23
2019-01-18T06:20:27.002Z,18.07
2019-01-18T06:22:55.968Z,13.80
2019-01-18T06:25:25.197Z,16.40
2019-01-18T06:27:54.255Z,16.17
2019-01-18T06:30:23.717Z,19.40
2019-01-18T06:32:53.765Z,15.00
2019-01-18T06:35:22.772Z,17.03
2019-01-18T06:37:52.114Z,14.47
2019-01-18T06:40:21.293Z,15.83
2019-01-18T06:42:50.473Z,13.90
2019-01-18T06:45:20.207Z,19.40
2019-01-18T06:47:49.262Z,15.67
2019-01-18T06:50:19.395Z,10.27
2019-01-18T06:52:48.520Z,13.87
2019-01-18T06:55:17.504Z,10.87
2019-01-18T06:57:49.109Z,14.73
2019-01-18T07:00:26.644Z,18.03
2019-01-18T07:02:56.112Z,13.37
2019-01-18T07:05:27.550Z,14.60
2019-01-18T07:07:56.554Z,11.70
2019-01-18T07:10:25.612Z,12.63
2019-01-18T07:12:54.536Z,11.50
2019-01-18T07:15:25.039Z,11.13
2019-01-18T07:17:54.104Z,12.50
2019-01-18T07:20:42.443Z,14.80
2019-01-18T07:23:11.428Z,15.00
2019-01-18T07:25:40.165Z,14.80
2019-01-18T07:28:09.214Z,16.47
2019-01-18T07:30:40.269Z,12.53
2019-01-18T07:33:11.162Z,14.97
2019-01-18T07:35:40.242Z,15.50
2019-01-18T07:38:09.013Z,15.73
2019-01-18T07:40:40.907Z,12.13
2019-01-18T07:43:09.681Z,14.63
2019-01-18T07:45:38.908Z,15.23
2019-01-18T07:48:08.166Z,8.53
2019-01-18T07:50:36.906Z,13.47
2019-01-18T07:53:06.154Z,19.60
2019-01-18T07:55:35.418Z,14.17
2019-01-18T07:58:05.029Z,19.17
2019-01-18T08:00:34.148Z,16.57
2019-01-18T08:03:03.172Z,20.40
2019-01-18T08:05:32.962Z,16.70
2019-01-18T08:08:03.132Z,16.13
2019-01-18T08:10:32.561Z,17.70
2019-01-18T08:13:01.516Z,17.67
2019-01-18T08:15:30.709Z,21.50
2019-01-18T08:17:59.549Z,31.80
2019-01-18T08:20:30.192Z,19.10
2019-01-18T08:23:02.089Z,23.13
2019-01-18T08:25:32.800Z,21.87
2019-01-18T08:28:02.668Z,19.93
2019-01-18T08:30:32.960Z,22.27
2019-01-18T08:33:01.843Z,14.40
2019-01-18T08:35:31.144Z,20.70
2019-01-18T08:37:59.857Z,18.83
2019-01-18T08:40:38.481Z,14.63
2019-01-18T08:43:10.008Z,17.97
2019-01-18T08:45:42.082Z,24.90
2019-01-18T08:48:11.298Z,25.70
2019-01-18T08:50:40.534Z,19.57
2019-01-18T08:53:09.289Z,24.57
2019-01-18T08:55:38.569Z,31.33
2019-01-18T08:58:07.348Z,28.33
2019-01-18T09:00:37.568Z,33.23
2019-01-18T09:03:06.592Z,32.93
2019-01-18T09:05:35.308Z,37.30
2019-01-18T09:08:04.121Z,32.93
2019-01-18T09:10:33.251Z,34.87
2019-01-18T09:13:02.296Z,32.80
2019-01-18T09:15:31.422Z,32.80
2019-01-18T09:18:00.850Z,29.60
2019-01-18T09:20:29.714Z,31.10
2019-01-18T09:22:58.547Z,33.10
2019-01-18T09:25:27.646Z,35.43
2019-01-18T09:27:57.070Z,31.80
2019-01-18T09:30:28.399Z,25.93
2019-01-18T09:32:57.661Z,32.83
2019-01-18T09:35:27.041Z,26.40
2019-01-18T09:37:57.125Z,27.17
2019-01-18T09:40:29.445Z,28.60
2019-01-18T09:42:58.288Z,22.80
2019-01-18T09:45:27.102Z,26.60
2019-01-18T09:47:57.346Z,20.60
2019-01-18T09:50:28.256Z,21.30
2019-01-18T09:52:57.614Z,26.50
2019-01-18T09:55:26.578Z,21.93
2019-01-18T09:57:55.368Z,22.73
2019-01-18T10:00:29.595Z,26.87
2019-01-18T10:02:59.260Z,23.53
2019-01-18T10:05:28.366Z,27.60
2019-01-18T10:07:57.330Z,22.43
2019-01-18T10:10:26.296Z,19.50
2019-01-18T10:12:56.317Z,20.03
2019-01-18T10:15:27.953Z,19.20
2019-01-18T10:18:00.774Z,20.93
2019-01-18T10:20:29.838Z,24.60
2019-01-18T10:23:00.085Z,22.00
2019-01-18T10:25:29.157Z,30.00
2019-01-18T10:27:58.114Z,26.87
2019-01-18T10:30:28.035Z,19.93
2019-01-18T10:32:57.170Z,26.87
2019-01-18T10:35:26.036Z,24.67
2019-01-18T10:37:54.786Z,19.80
2019-01-18T10:40:26.140Z,20.63
2019-01-18T10:42:55.637Z,22.43
2019-01-18T10:45:24.788Z,20.60
2019-01-18T10:47:53.990Z,20.07
2019-01-18T10:50:31.297Z,19.47
2019-01-18T10:53:00.681Z,22.43
2019-01-18T10:55:29.738Z,19.37
2019-01-18T10:57:58.838Z,21.27
2019-01-18T11:00:29.672Z,22.13
2019-01-18T11:02:58.421Z,23.77
2019-01-18T11:05:27.477Z,23.93
2019-01-18T11:07:56.664Z,30.30
2019-01-18T11:10:25.591Z,16.53
2019-01-18T11:12:54.403Z,18.10
2019-01-18T11:15:25.366Z,18.00
2019-01-18T11:17:54.846Z,22.07
2019-01-18T11:20:26.363Z,17.77
2019-01-18T11:22:56.264Z,20.53
2019-01-18T11:25:31.567Z,16.30
2019-01-18T11:27:56.067Z,16.07
2019-01-18T11:30:24.897Z,15.30
2019-01-18T11:32:53.666Z,16.67
2019-01-18T11:35:22.459Z,15.30
2019-01-18T11:37:51.905Z,14.13
2019-01-18T11:40:21.302Z,16.77
2019-01-18T11:42:50.631Z,16.70
2019-01-18T11:45:19.732Z,16.50
2019-01-18T11:47:48.611Z,15.80
2019-01-18T11:50:20.964Z,15.70
2019-01-18T11:52:49.817Z,19.13
2019-01-18T11:55:18.964Z,12.77
2019-01-18T11:57:47.988Z,12.50
2019-01-18T12:00:22.185Z,16.03
2019-01-18T12:02:51.590Z,16.37
2019-01-18T12:05:21.176Z,22.97
2019-01-18T12:07:50.124Z,12.73
2019-01-18T12:10:24.148Z,15.53
2019-01-18T12:12:52.936Z,13.23
2019-01-18T12:15:22.007Z,13.10
2019-01-18T12:17:51.014Z,14.23
2019-01-18T12:20:25.198Z,13.60
2019-01-18T12:22:54.094Z,11.10
2019-01-18T12:25:22.984Z,16.57
2019-01-18T12:27:52.044Z,12.77
2019-01-18T12:30:23.853Z,17.80
2019-01-18T12:32:52.558Z,12.40
2019-01-18T12:35:21.317Z,13.03
2019-01-18T12:37:50.099Z,10.40
2019-01-18T12:40:19.130Z,11.93
2019-01-18T12:42:47.941Z,12.73
2019-01-18T12:45:18.582Z,12.40
2019-01-18T12:47:47.485Z,10.23
2019-01-18T12:50:25.170Z,12.17
2019-01-18T12:52:54.181Z,13.87
2019-01-18T12:55:22.908Z,11.03
2019-01-18T12:57:52.058Z,12.30
2019-01-18T13:00:21.746Z,9.90
2019-01-18T13:02:51.057Z,8.10
2019-01-18T13:05:22.740Z,8.97
2019-01-18T13:07:51.482Z,7.63
2019-01-18T13:10:20.270Z,9.00
2019-01-18T13:12:48.991Z,6.10
2019-01-18T13:15:24.429Z,14.60
2019-01-18T13:17:53.236Z,6.37
2019-01-18T13:20:22.057Z,8.90
2019-01-18T13:22:50.861Z,6.93
2019-01-18T13:25:19.900Z,9.30
2019-01-18T13:27:48.959Z,10.07
2019-01-18T13:30:17.960Z,14.50
2019-01-18T13:32:46.923Z,11.07
2019-01-18T13:35:15.759Z,8.30
2019-01-18T13:37:44.777Z,9.63
2019-01-18T13:40:16.038Z,6.67
2019-01-18T13:42:44.836Z,8.30
2019-01-18T13:45:13.880Z,5.70
2019-01-18T13:47:42.849Z,5.90
2019-01-18T13:50:14.104Z,5.40
2019-01-18T13:52:43.130Z,7.90
2019-01-18T13:55:15.265Z,4.60
2019-01-18T13:57:44.354Z,5.37
2019-01-18T14:00:13.298Z,10.00
2019-01-18T14:02:48.230Z,11.63
2019-01-18T14:05:13.013Z,6.40
2019-01-18T14:07:42.478Z,7.43
2019-01-18T14:10:17.646Z,3.37
2019-01-18T14:12:46.351Z,4.00
2019-01-18T14:15:18.163Z,3.27
2019-01-18T14:17:47.230Z,8.10
2019-01-18T14:20:16.250Z,4.13
2019-01-18T14:22:45.642Z,6.80
2019-01-18T14:25:14.497Z,4.23
2019-01-18T14:27:43.584Z,3.93
2019-01-18T14:30:15.921Z,4.43
2019-01-18T14:32:44.700Z,6.33
2019-01-18T14:35:13.549Z,4.93
2019-01-18T14:37:42.665Z,7.80
2019-01-18T14:40:13.250Z,4.40
2019-01-18T14:42:42.234Z,5.33
2019-01-18T14:45:14.393Z,4.83
2019-01-18T14:47:43.353Z,5.00
2019-01-18T14:50:15.570Z,4.20
2019-01-18T14:52:44.548Z,5.70
2019-01-18T14:55:14.884Z,11.33
2019-01-18T14:57:44.063Z,7.37
2019-01-18T15:00:18.701Z,5.47
2019-01-18T15:02:47.716Z,5.30
2019-01-18T15:05:16.721Z,3.50
2019-01-18T15:07:45.432Z,4.93
2019-01-18T15:10:16.745Z,3.83
2019-01-18T15:12:45.953Z,2.93
2019-01-18T15:15:15.519Z,3.77
2019-01-18T15:17:44.344Z,4.97
2019-01-18T15:20:19.036Z,4.03
2019-01-18T15:22:48.570Z,3.23
2019-01-18T15:25:17.731Z,6.43
2019-01-18T15:27:47.048Z,6.97
2019-01-18T15:30:18.996Z,6.70
2019-01-18T15:32:48.013Z,3.67
2019-01-18T15:35:18.779Z,4.50
2019-01-18T15:37:47.926Z,5.00
2019-01-18T15:40:19.260Z,5.77
2019-01-18T15:42:48.233Z,5.97
2019-01-18T15:45:17.383Z,2.27
2019-01-18T15:47:46.090Z,5.60
2019-01-18T15:50:20.689Z,5.60
2019-01-18T15:52:49.525Z,2.67
2019-01-18T15:55:18.424Z,3.70
2019-01-18T15:57:47.196Z,3.63
2019-01-18T16:00:28.265Z,6.40
2019-01-18T16:02:57.784Z,4.73
2019-01-18T16:05:27.184Z,3.30
2019-01-18T16:07:56.281Z,6.33
2019-01-18T16:10:25.260Z,13.10
2019-01-18T16:12:54.654Z,8.70
2019-01-18T16:15:29.515Z,5.50
2019-01-18T16:17:58.271Z,6.60
2019-01-18T16:20:27.083Z,7.73
2019-01-18T16:22:56.280Z,3.50
2019-01-18T16:25:27.510Z,6.57
2019-01-18T16:27:56.653Z,3.67
2019-01-18T16:30:25.598Z,4.57
2019-01-18T16:32:55.573Z,4.33
2019-01-18T16:35:24.543Z,6.77
2019-01-18T16:37:53.723Z,4.63
2019-01-18T16:40:25.418Z,4.83
2019-01-18T16:42:58.664Z,5.53
2019-01-18T16:45:27.445Z,3.67
2019-01-18T16:47:56.244Z,8.40
2019-01-18T16:50:25.171Z,5.40
2019-01-18T16:52:54.274Z,4.33
2019-01-18T16:55:23.237Z,5.70
2019-01-18T16:57:52.200Z,5.50
2019-01-18T17:00:24.738Z,2.97
2019-01-18T17:02:53.770Z,4.07
2019-01-18T17:05:22.549Z,3.63
2019-01-18T17:07:51.469Z,11.20
2019-01-18T17:10:20.541Z,4.83
2019-01-18T17:12:50.952Z,4.13
2019-01-18T17:15:20.144Z,4.70
2019-01-18T17:17:49.181Z,8.40
2019-01-18T17:20:23.627Z,4.83
2019-01-18T17:22:52.777Z,5.10
2019-01-18T17:25:21.878Z,5.37
2019-01-18T17:27:50.932Z,4.90
2019-01-18T17:30:20.542Z,2.00
2019-01-18T17:32:49.654Z,2.30
2019-01-18T17:35:22.124Z,7.47
2019-01-18T17:38:00.820Z,4.07
2019-01-18T17:40:49.170Z,2.30
2019-01-18T17:43:40.793Z,2.30
2019-01-18T17:46:46.349Z,4.00
2019-01-18T17:49:36.585Z,4.40
2019-01-18T17:52:57.839Z,3.97
2019-01-18T17:56:02.345Z,4.70
2019-01-18T17:58:58.006Z,12.03
2019-01-18T18:02:07.895Z,4.63
2019-01-18T18:05:15.089Z,3.47
2019-01-18T18:08:33.688Z,4.10
2019-01-18T18:11:33.196Z,2.53
2019-01-18T18:14:49.984Z,10.73
2019-01-18T18:17:53.425Z,4.03
2019-01-18T18:21:03.021Z,6.60
2019-01-18T18:23:58.145Z,4.60
2019-01-18T18:27:01.474Z,5.80
2019-01-18T18:29:54.395Z,8.80
2019-01-18T18:32:59.156Z,4.03
2019-01-18T18:36:14.366Z,11.60
2019-01-18T18:39:26.099Z,3.50
2019-01-18T18:42:32.393Z,4.67
2019-01-18T18:45:42.448Z,3.07
2019-01-18T18:48:57.408Z,4.90
2019-01-18T18:51:59.286Z,4.10
2019-01-18T18:55:04.609Z,5.27
2019-01-18T18:58:06.812Z,4.47
2019-01-18T19:00:47.108Z,6.50
2019-01-18T19:03:30.773Z,6.63
2019-01-18T19:06:49.088Z,5.97
2019-01-18T19:09:58.906Z,12.43
2019-01-18T19:12:50.755Z,5.20
2019-01-18T19:16:05.972Z,5.90
2019-01-18T19:19:22.229Z,3.37
2019-01-18T19:22:25.333Z,6.73
2019-01-18T19:25:41.692Z,4.50
2019-01-18T19:28:46.101Z,6.20
2019-01-18T19:31:44.766Z,6.40
2019-01-18T19:34:54.572Z,10.87
2019-01-18T19:38:20.234Z,8.00
2019-01-18T19:41:18.042Z,10.40
2019-01-18T19:44:19.332Z,14.13
2019-01-18T19:47:15.240Z,5.20
2019-01-18T19:50:17.654Z,3.20
2019-01-18T19:53:17.373Z,6.13
2019-01-18T19:56:12.337Z,5.03
2019-01-18T19:59:17.492Z,15.33
2019-01-18T20:02:32.211Z,3.90
2019-01-18T20:05:39.199Z,4.73
2019-01-18T20:08:31.364Z,6.07
2019-01-18T20:11:44.722Z,20.10
2019-01-18T20:14:36.677Z,8.07
2019-01-18T20:17:51.914Z,6.60
2019-01-18T20:20:48.337Z,8.57
2019-01-18T20:23:50.554Z,7.07
2019-01-18T20:26:31.398Z,9.17
2019-01-18T20:29:30.241Z,10.33
2019-01-18T20:32:31.593Z,9.90
2019-01-18T20:35:24.309Z,14.97
2019-01-18T20:38:22.814Z,11.10
2019-01-18T20:41:12.719Z,11.67
2019-01-18T20:44:36.345Z,10.77
2019-01-18T20:47:50.286Z,7.00
2019-01-18T20:50:49.745Z,3.90
2019-01-18T20:53:50.650Z,5.87
2019-01-18T20:56:45.214Z,9.47
2019-01-18T20:59:36.414Z,7.60
2019-01-18T21:02:47.157Z,9.03
2019-01-18T21:06:09.482Z,9.37
2019-01-18T21:09:08.645Z,9.90
2019-01-18T21:11:54.076Z,10.50
2019-01-18T21:14:28.930Z,6.27
2019-01-18T21:17:27.620Z,4.77
2019-01-18T21:20:55.950Z,3.73
2019-01-18T21:23:53.954Z,7.40
2019-01-18T21:27:07.393Z,5.87
2019-01-18T21:30:17.245Z,4.23
2019-01-18T21:33:15.486Z,4.10
2019-01-18T21:36:01.267Z,7.50
2019-01-18T21:39:01.377Z,5.33
2019-01-18T21:42:04.211Z,13.63
2019-01-18T21:45:06.205Z,7.73
2019-01-18T21:48:09.388Z,9.50
2019-01-18T21:51:16.785Z,8.77
2019-01-18T21:54:05.331Z,6.20
2019-01-18T21:56:57.091Z,8.40
2019-01-18T21:59:48.640Z,4.97
2019-01-18T22:02:42.309Z,11.23
2019-01-18T22:05:41.345Z,9.63
2019-01-18T22:08:50.499Z,6.53
2019-01-18T22:11:39.530Z,4.80
2019-01-18T22:14:51.449Z,3.70
2019-01-18T22:17:51.250Z,4.00
2019-01-18T22:20:50.251Z,4.73
2019-01-18T22:23:52.820Z,3.50
2019-01-18T22:27:05.265Z,5.50
2019-01-18T22:29:59.158Z,4.77
2019-01-18T22:32:46.112Z,3.37
2019-01-18T22:35:42.852Z,4.17
2019-01-18T22:38:40.985Z,4.03
2019-01-18T22:41:26.561Z,4.23
2019-01-18T22:44:19.490Z,5.10
2019-01-18T22:47:23.725Z,4.60
2019-01-18T22:50:15.406Z,6.78
2019-01-18T22:53:05.958Z,5.85
2019-01-18T22:56:19.845Z,5.30
2019-01-18T22:59:45.223Z,4.58
2019-01-18T23:02:38.325Z,9.63
2019-01-18T23:06:01.083Z,5.87
2019-01-18T23:09:22.253Z,4.13
2019-01-18T23:12:07.901Z,4.07
2019-01-18T23:15:00.246Z,3.30
2019-01-18T23:17:58.602Z,7.73
2019-01-18T23:20:52.381Z,2.90
2019-01-18T23:23:39.501Z,5.10
2019-01-18T23:26:55.311Z,4.27
2019-01-18T23:29:32.942Z,3.13
2019-01-18T23:32:38.528Z,4.45
2019-01-18T23:35:18.993Z,4.20
2019-01-18T23:38:11.957Z,4.45
2019-01-18T23:41:14.652Z,3.03
2019-01-18T23:44:09.186Z,2.93
2019-01-18T23:46:59.508Z,3.13
2019-01-18T23:49:58.635Z,2.87
2019-01-18T23:53:04.653Z,2.70
2019-01-18T23:55:56.325Z,3.13
2019-01-18T23:59:34.193Z,4.30
